Aérodrome :
LOGIN :

S'inscrire | Disclaimer

   EN    FR    IT 

 










Légende :    VFR   VFR Marginal   IFR   IFR Intensif   IFR Très Intensif
Visi : 
Plafond : 
>= 8 km
>= 3000ft
5 à 8 km
1000 à 3000 ft
1500m à 5 km
500 à 1000 ft
800 à 1500m
200 à 500 ft
< 800m
< 200 ft
Symboles :   Orages  Brouillard  Fortes neiges  Fortes précipitations  Vent > 20 kt
SIGMETs :   Divers  Orages  Givrage  Turbulence  Onde Orograph.  Cendres Volcan.






- Altitude de l'aérodrome : 682 ft
- Code IATA : VTB


UMII - Vitebsk

DERNIER METAR :
  • 251432Z 12004G07MPS 6000 OVC004 02/02 Q1001 R23/290062 TEMPO 2000 RA BKN003 RMK QBB120

METARs EXPIRÉS :
  • 251400Z 12003G06MPS 3100 -RA OVC003 03/02 Q1001 R23/290062 TEMPO 2100 BKN002 RMK QBB110
  • 251300Z 13004G07MPS 2100 -RA OVC002 03/02 Q1001 R23/290062 TEMPO 1600 RA RMK QBB080
  • 251252Z 13004G07MPS 1600 RA OVC002 03/02 Q1001 R23/290062 TEMPO 1300 RMK QBB070
  • 251227Z 13004G07MPS 0700 DZ FG VV002 03/02 Q1001 R23/290062 TEMPO 0500 RMK QBB070
  • 251215Z 13004G07MPS 0900 DZ FG VV002 03/02 Q1001 R23/290062 TEMPO 0700 RMK QBB070
  • 251200Z 13004G07MPS 1700 DZ BR OVC002 03/02 Q1001 R23/290062 TEMPO 1300 RMK QBB070
  • 251148Z 13004G07MPS 3200 -DZ BR OVC003 03/02 Q1002 R23/290062 TEMPO 2100 BKN002 RMK QBB090

TAF TAF UMII
Valide du 25 à 15h jusqu'au 26 à 00h UTC


251402Z 2515/2524 14003G08MPS 2000 RA BR OVC004
TEMPO 2515/2524 0300 -SHRA FG BKN002 BKN010CB



MET'MAP, la Météo Aéronautique d'un coup d'oeil ! - Copyright ORBIFLY Décembre 2007 - Disclaimer

ORBIFLY MET'MAP TEAM :

Programmation & Développement : Alexandra Zaïnal
Sur une idée originale de : Baudouin d'Aumeries
Assistance à la programmation : Marc-Olivier Méhu
Soutien technique & logistique : Manuel Goepfert

Contact : metmap@orbifly.com




SOURCES & CREDITS :

   NOAA